sensor_id;sensor_type;location;lat;lon;timestamp;P1;durP1;ratioP1;P2;durP2;ratioP2
11334;SDS011;5722;42.620;23.374;2023-05-10T00:02:02;7.97;;;6.30;;
11334;SDS011;5722;42.620;23.374;2023-05-10T00:04:31;6.70;;;5.97;;
11334;SDS011;5722;42.620;23.374;2023-05-10T00:06:58;7.10;;;6.50;;
11334;SDS011;5722;42.620;23.374;2023-05-10T00:09:25;7.10;;;6.40;;
11334;SDS011;5722;42.620;23.374;2023-05-10T00:11:51;6.63;;;5.90;;
11334;SDS011;5722;42.620;23.374;2023-05-10T00:14:20;7.50;;;6.67;;
11334;SDS011;5722;42.620;23.374;2023-05-10T00:16:48;8.03;;;6.43;;
11334;SDS011;5722;42.620;23.374;2023-05-10T00:19:15;7.40;;;6.43;;
11334;SDS011;5722;42.620;23.374;2023-05-10T00:21:45;7.13;;;6.30;;
11334;SDS011;5722;42.620;23.374;2023-05-10T00:24:12;7.30;;;6.60;;
11334;SDS011;5722;42.620;23.374;2023-05-10T00:26:39;6.77;;;6.23;;
11334;SDS011;5722;42.620;23.374;2023-05-10T00:29:07;7.03;;;6.40;;
11334;SDS011;5722;42.620;23.374;2023-05-10T00:31:34;7.73;;;6.93;;
11334;SDS011;5722;42.620;23.374;2023-05-10T00:34:01;7.13;;;6.23;;
11334;SDS011;5722;42.620;23.374;2023-05-10T00:36:29;6.93;;;6.23;;
11334;SDS011;5722;42.620;23.374;2023-05-10T00:38:58;7.63;;;6.67;;
11334;SDS011;5722;42.620;23.374;2023-05-10T00:41:25;7.60;;;6.87;;
11334;SDS011;5722;42.620;23.374;2023-05-10T00:43:52;7.17;;;6.53;;
11334;SDS011;5722;42.620;23.374;2023-05-10T00:46:20;8.97;;;7.33;;
11334;SDS011;5722;42.620;23.374;2023-05-10T00:48:48;7.83;;;7.13;;
11334;SDS011;5722;42.620;23.374;2023-05-10T00:51:15;10.30;;;8.00;;
11334;SDS011;5722;42.620;23.374;2023-05-10T00:53:43;8.53;;;7.73;;
11334;SDS011;5722;42.620;23.374;2023-05-10T00:56:12;8.03;;;7.33;;
11334;SDS011;5722;42.620;23.374;2023-05-10T00:58:39;8.83;;;8.03;;
11334;SDS011;5722;42.620;23.374;2023-05-10T01:01:07;8.40;;;7.40;;
11334;SDS011;5722;42.620;23.374;2023-05-10T01:03:34;8.27;;;7.57;;
11334;SDS011;5722;42.620;23.374;2023-05-10T01:06:01;10.57;;;7.27;;
11334;SDS011;5722;42.620;23.374;2023-05-10T01:08:28;8.50;;;7.80;;
11334;SDS011;5722;42.620;23.374;2023-05-10T01:10:55;9.00;;;8.20;;
11334;SDS011;5722;42.620;23.374;2023-05-10T01:13:27;7.93;;;7.23;;
11334;SDS011;5722;42.620;23.374;2023-05-10T01:15:57;9.87;;;7.20;;
11334;SDS011;5722;42.620;23.374;2023-05-10T01:18:25;8.00;;;7.30;;
11334;SDS011;5722;42.620;23.374;2023-05-10T01:20:54;8.10;;;7.40;;
11334;SDS011;5722;42.620;23.374;2023-05-10T01:23:27;7.70;;;6.90;;
11334;SDS011;5722;42.620;23.374;2023-05-10T01:26:08;7.67;;;7.00;;
11334;SDS011;5722;42.620;23.374;2023-05-10T01:31:33;7.03;;;6.33;;
11334;SDS011;5722;42.620;23.374;2023-05-10T01:34:08;6.73;;;5.93;;
11334;SDS011;5722;42.620;23.374;2023-05-10T01:36:39;6.90;;;6.30;;
11334;SDS011;5722;42.620;23.374;2023-05-10T01:39:08;6.63;;;6.03;;
11334;SDS011;5722;42.620;23.374;2023-05-10T01:41:39;7.47;;;6.77;;
11334;SDS011;5722;42.620;23.374;2023-05-10T01:44:12;6.90;;;6.30;;
11334;SDS011;5722;42.620;23.374;2023-05-10T01:46:48;6.93;;;6.23;;
11334;SDS011;5722;42.620;23.374;2023-05-10T01:49:19;6.63;;;6.03;;
11334;SDS011;5722;42.620;23.374;2023-05-10T01:51:50;6.73;;;6.13;;
11334;SDS011;5722;42.620;23.374;2023-05-10T01:54:20;6.33;;;5.83;;
11334;SDS011;5722;42.620;23.374;2023-05-10T01:56:49;6.57;;;6.03;;
11334;SDS011;5722;42.620;23.374;2023-05-10T01:59:17;7.77;;;6.47;;
11334;SDS011;5722;42.620;23.374;2023-05-10T02:01:45;7.27;;;6.20;;
11334;SDS011;5722;42.620;23.374;2023-05-10T02:04:13;6.90;;;5.67;;
11334;SDS011;5722;42.620;23.374;2023-05-10T02:06:44;5.90;;;5.40;;
11334;SDS011;5722;42.620;23.374;2023-05-10T02:09:13;6.00;;;5.50;;
11334;SDS011;5722;42.620;23.374;2023-05-10T02:11:41;5.87;;;5.37;;
11334;SDS011;5722;42.620;23.374;2023-05-10T02:14:09;6.10;;;5.60;;
11334;SDS011;5722;42.620;23.374;2023-05-10T02:16:38;6.77;;;6.17;;
11334;SDS011;5722;42.620;23.374;2023-05-10T02:19:06;7.73;;;5.43;;
11334;SDS011;5722;42.620;23.374;2023-05-10T02:21:36;8.30;;;5.67;;
11334;SDS011;5722;42.620;23.374;2023-05-10T02:24:06;7.40;;;5.40;;
11334;SDS011;5722;42.620;23.374;2023-05-10T02:26:34;6.23;;;5.67;;
11334;SDS011;5722;42.620;23.374;2023-05-10T02:29:01;7.53;;;5.73;;
11334;SDS011;5722;42.620;23.374;2023-05-10T02:31:34;6.73;;;5.90;;
11334;SDS011;5722;42.620;23.374;2023-05-10T02:34:04;9.70;;;6.10;;
11334;SDS011;5722;42.620;23.374;2023-05-10T02:36:34;6.63;;;6.03;;
11334;SDS011;5722;42.620;23.374;2023-05-10T02:39:01;9.23;;;6.30;;
11334;SDS011;5722;42.620;23.374;2023-05-10T02:41:33;6.93;;;6.20;;
11334;SDS011;5722;42.620;23.374;2023-05-10T02:44:01;7.63;;;6.17;;
11334;SDS011;5722;42.620;23.374;2023-05-10T02:46:30;6.50;;;5.87;;
11334;SDS011;5722;42.620;23.374;2023-05-10T02:49:00;7.87;;;6.53;;
11334;SDS011;5722;42.620;23.374;2023-05-10T02:51:32;10.50;;;7.20;;
11334;SDS011;5722;42.620;23.374;2023-05-10T02:54:07;7.23;;;6.50;;
11334;SDS011;5722;42.620;23.374;2023-05-10T02:56:40;7.63;;;6.53;;
11334;SDS011;5722;42.620;23.374;2023-05-10T02:59:11;6.70;;;6.00;;
11334;SDS011;5722;42.620;23.374;2023-05-10T03:01:40;9.07;;;6.63;;
11334;SDS011;5722;42.620;23.374;2023-05-10T03:04:08;7.57;;;6.77;;
11334;SDS011;5722;42.620;23.374;2023-05-10T03:06:35;7.10;;;6.40;;
11334;SDS011;5722;42.620;23.374;2023-05-10T03:09:03;7.33;;;6.63;;
11334;SDS011;5722;42.620;23.374;2023-05-10T03:11:37;7.67;;;6.87;;
11334;SDS011;5722;42.620;23.374;2023-05-10T03:14:21;7.20;;;6.40;;
11334;SDS011;5722;42.620;23.374;2023-05-10T03:16:56;11.63;;;6.73;;
11334;SDS011;5722;42.620;23.374;2023-05-10T03:19:26;6.67;;;6.00;;
11334;SDS011;5722;42.620;23.374;2023-05-10T03:21:54;7.13;;;6.43;;
11334;SDS011;5722;42.620;23.374;2023-05-10T03:24:27;7.33;;;6.63;;
11334;SDS011;5722;42.620;23.374;2023-05-10T03:26:55;6.50;;;5.90;;
11334;SDS011;5722;42.620;23.374;2023-05-10T03:29:25;8.67;;;6.37;;
11334;SDS011;5722;42.620;23.374;2023-05-10T03:31:56;6.60;;;5.97;;
11334;SDS011;5722;42.620;23.374;2023-05-10T03:34:24;6.77;;;6.17;;
11334;SDS011;5722;42.620;23.374;2023-05-10T03:36:59;6.97;;;5.97;;
11334;SDS011;5722;42.620;23.374;2023-05-10T03:39:26;7.33;;;5.77;;
11334;SDS011;5722;42.620;23.374;2023-05-10T03:41:53;7.60;;;6.80;;
11334;SDS011;5722;42.620;23.374;2023-05-10T03:44:22;7.00;;;6.30;;
11334;SDS011;5722;42.620;23.374;2023-05-10T03:46:54;7.13;;;6.20;;
11334;SDS011;5722;42.620;23.374;2023-05-10T03:49:22;6.40;;;5.80;;
11334;SDS011;5722;42.620;23.374;2023-05-10T03:51:48;7.43;;;5.57;;
11334;SDS011;5722;42.620;23.374;2023-05-10T03:54:15;7.10;;;6.40;;
11334;SDS011;5722;42.620;23.374;2023-05-10T04:47:08;7.70;;;5.83;;
11334;SDS011;5722;42.620;23.374;2023-05-10T04:52:25;6.27;;;5.73;;
11334;SDS011;5722;42.620;23.374;2023-05-10T04:55:22;6.70;;;6.10;;
11334;SDS011;5722;42.620;23.374;2023-05-10T04:58:06;8.43;;;6.43;;
11334;SDS011;5722;42.620;23.374;2023-05-10T05:00:47;6.67;;;5.37;;
11334;SDS011;5722;42.620;23.374;2023-05-10T16:45:48;10.93;;;7.90;;
11334;SDS011;5722;42.620;23.374;2023-05-10T22:12:07;8.20;;;7.40;;
11334;SDS011;5722;42.620;23.374;2023-05-10T23:16:44;8.60;;;7.80;;
